Time;durP1;ratioP1;P1;durP2;ratioP2;P2;SDS_P1;SDS_P2;PMS_P1;PMS_P2;Temp;Humidity;BMP_temperature;BMP_pressure;BME280_temperature;BME280_humidity;BME280_pressure;Samples;Min_cycle;Max_cycle;Signal;HPM_P1;HPM_P2
2021/12/20 00:01:34;;;;;;;13.40;3.30;;;;;;;-0.24;100.00;101975.34;7392194;19;20192;-43
2021/12/20 00:04:04;;;;;;;13.10;3.22;;;;;;;-0.30;100.00;101974.72;7398662;19;20131;-43
2021/12/20 00:06:36;;;;;;;9.50;3.00;;;;;;;-0.30;100.00;101972.16;7390505;19;20527;-44
2021/12/20 00:09:06;;;;;;;22.60;4.60;;;;;;;-0.34;100.00;101980.19;7398254;19;20138;-47
2021/12/20 00:11:36;;;;;;;8.27;2.85;;;;;;;-0.34;100.00;101982.72;7392086;19;20186;-47
2021/12/20 00:14:05;;;;;;;17.27;3.63;;;;;;;-0.29;100.00;101979.03;7398396;19;20135;-48
2021/12/20 00:16:35;;;;;;;18.95;3.88;;;;;;;-0.31;100.00;101985.59;7391218;19;20460;-45
2021/12/20 00:19:05;;;;;;;21.23;5.32;;;;;;;-0.28;100.00;101988.44;7402596;19;20187;-46
2021/12/20 00:21:37;;;;;;;13.20;3.20;;;;;;;-0.06;100.00;101985.63;7392140;19;20196;-43
2021/12/20 00:24:07;;;;;;;14.85;3.38;;;;;;;-0.17;100.00;101981.94;7398070;19;20506;-45
2021/12/20 00:26:37;;;;;;;11.23;3.60;;;;;;;0.35;100.00;101973.78;7390733;19;20587;-45
2021/12/20 00:29:06;;;;;;;10.20;3.33;;;;;;;0.18;100.00;101976.22;7398203;19;20147;-42
2021/12/20 00:31:36;;;;;;;10.20;3.55;;;;;;;0.50;100.00;101983.69;7391478;19;20246;-46
2021/12/20 00:34:05;;;;;;;17.77;3.80;;;;;;;0.44;100.00;101991.59;7397844;19;20148;-46
2021/12/20 00:36:37;;;;;;;8.50;3.33;;;;;;;0.29;100.00;102005.25;7398031;19;20182;-44
2021/12/20 00:41:49;;;;;;;31.00;13.25;;;;;;;0.96;100.00;101992.53;7401986;19;20178;-47
2021/12/20 00:44:18;;;;;;;32.90;12.77;;;;;;;1.12;100.00;102002.59;7404419;19;20384;-48
2021/12/20 00:46:56;;;;;;;39.40;16.03;;;;;;;0.76;100.00;102008.31;7402669;19;20174;-45
2021/12/20 00:49:25;;;;;;;25.55;10.90;;;;;;;0.91;100.00;102017.50;7398717;19;20387;-46
2021/12/20 00:51:57;;;;;;;31.20;8.43;;;;;;;1.04;100.00;102016.19;7403962;19;20126;-44
2021/12/20 00:54:27;;;;;;;15.25;3.35;;;;;;;0.78;100.00;102033.13;7398932;19;20531;-45
2021/12/20 00:56:56;;;;;;;29.58;9.85;;;;;;;1.14;100.00;102023.09;7402261;19;20150;-44
2021/12/20 00:59:26;;;;;;;11.90;3.47;;;;;;;0.88;100.00;102029.00;7398632;19;20131;-44
2021/12/20 01:01:55;;;;;;;18.60;5.50;;;;;;;1.06;100.00;102024.84;7403680;19;20467;-46
2021/12/20 01:04:25;;;;;;;25.83;6.30;;;;;;;1.13;100.00;102028.94;7398158;19;20179;-42
2021/12/20 01:06:57;;;;;;;8.20;2.72;;;;;;;0.83;100.00;102030.16;7401911;19;20163;-45
2021/12/20 01:09:26;;;;;;;10.43;2.58;;;;;;;0.51;100.00;102042.28;7397520;19;20131;-48
2021/12/20 01:12:02;;;;;;;20.15;4.43;;;;;;;0.58;100.00;102042.91;7403474;19;20119;-43
2021/12/20 01:14:34;;;;;;;13.73;4.57;;;;;;;0.61;100.00;102049.19;7398707;19;20207;-44
2021/12/20 01:17:05;;;;;;;20.02;4.68;;;;;;;0.94;100.00;102044.88;7402248;19;20162;-45
2021/12/20 01:19:35;;;;;;;17.50;5.60;;;;;;;0.93;100.00;102032.91;7397936;19;20123;-45
2021/12/20 01:22:08;;;;;;;10.77;2.28;;;;;;;0.58;100.00;102042.91;7403668;19;20175;-45
2021/12/20 01:24:38;;;;;;;9.82;2.72;;;;;;;0.23;100.00;102033.44;7397471;19;20123;-43
2021/12/20 01:27:07;;;;;;;14.23;3.78;;;;;;;0.65;100.00;102031.00;7401890;19;20162;-44
2021/12/20 01:29:37;;;;;;;7.53;2.72;;;;;;;0.55;100.00;102048.56;7397276;19;20137;-45
2021/12/20 01:32:07;;;;;;;10.68;3.97;;;;;;;0.72;100.00;102041.78;7404501;19;20186;-43
2021/12/20 01:34:37;;;;;;;11.27;3.92;;;;;;;1.01;100.00;102038.75;7397396;19;20184;-47
2021/12/20 01:37:09;;;;;;;8.00;3.33;;;;;;;1.00;100.00;102047.13;7401928;19;20236;-46
2021/12/20 01:39:38;;;;;;;13.88;2.70;;;;;;;0.62;100.00;102051.00;7397193;19;20140;-45
2021/12/20 01:42:08;;;;;;;14.88;3.42;;;;;;;0.33;100.00;102053.97;7403694;19;20540;-45
2021/12/20 01:44:38;;;;;;;12.80;2.92;;;;;;;0.37;100.00;102045.91;7396940;19;20124;-46
2021/12/20 01:47:09;;;;;;;18.77;3.45;;;;;;;0.29;100.00;102044.22;7398672;19;20222;-46
2021/12/20 01:49:52;;;;;;;13.20;2.40;;;;;;;0.12;100.00;102045.91;7396729;19;20140;-45
2021/12/20 01:52:27;;;;;;;16.42;3.72;;;;;;;0.31;100.00;102042.75;7402955;19;20182;-46
2021/12/20 01:54:56;;;;;;;8.90;2.67;;;;;;;0.05;100.00;102032.44;7396106;19;20186;-42
2021/12/20 01:57:26;;;;;;;6.50;2.15;;;;;;;0.37;100.00;102033.22;7400881;19;20155;-47
2021/12/20 01:59:55;;;;;;;14.00;3.40;;;;;;;0.49;100.00;102032.69;7395785;19;20186;-43
2021/12/20 02:02:25;;;;;;;6.65;2.38;;;;;;;0.11;100.00;102028.88;7402431;19;20123;-43
2021/12/20 02:05:01;;;;;;;11.63;2.42;;;;;;;-0.15;100.00;102034.66;7395755;19;20196;-43
2021/12/20 02:07:48;;;;;;;10.43;2.55;;;;;;;-0.20;100.00;102034.91;7400389;19;20159;-45
2021/12/20 02:10:17;;;;;;;9.40;2.70;;;;;;;-0.26;100.00;102025.00;7393537;19;20187;-45
2021/12/20 02:12:47;;;;;;;16.45;2.90;;;;;;;-0.44;100.00;102026.50;7401392;19;20140;-44
2021/12/20 02:15:16;;;;;;;16.30;2.47;;;;;;;-0.54;100.00;102034.75;7395785;19;20183;-43
2021/12/20 02:17:46;;;;;;;8.98;2.30;;;;;;;-0.47;100.00;102033.81;7400490;19;20159;-45
2021/12/20 02:20:30;;;;;;;12.90;2.85;;;;;;;-0.55;100.00;102040.56;7395671;19;20186;-44
2021/12/20 02:23:00;;;;;;;9.48;2.70;;;;;;;-0.08;100.00;102020.06;7401741;19;20127;-46
2021/12/20 02:25:31;;;;;;;10.27;3.15;;;;;;;-0.14;100.00;102026.31;7396539;19;20189;-48
2021/12/20 02:28:05;;;;;;;6.85;1.85;;;;;;;-0.50;100.00;102026.75;7399740;19;20165;-43
2021/12/20 02:30:46;;;;;;;15.82;2.83;;;;;;;-0.62;100.00;102017.84;7395363;19;20185;-45
2021/12/20 02:38:57;;;;;;;12.93;3.40;;;;;;;-0.02;100.00;102030.88;7397753;19;20127;-44
2021/12/20 02:41:32;;;;;;;9.27;2.60;;;;;;;-0.18;100.00;102034.34;7393330;19;20182;-46
2021/12/20 02:44:04;;;;;;;8.88;2.47;;;;;;;-0.33;100.00;102022.56;7400809;19;20138;-45
2021/12/20 02:46:47;;;;;;;11.82;2.35;;;;;;;-0.70;100.00;102011.94;7394069;19;20584;-45
2021/12/20 02:49:19;;;;;;;11.13;2.70;;;;;;;-0.65;100.00;102008.28;7399339;19;20141;-43
2021/12/20 02:51:53;;;;;;;14.40;2.20;;;;;;;-0.64;100.00;102017.66;7394452;19;20178;-42
2021/12/20 02:54:26;;;;;;;11.98;2.60;;;;;;;-0.41;100.00;102025.19;7394617;19;20127;-44
2021/12/20 02:56:56;;;;;;;10.80;3.58;;;;;;;-0.16;100.00;102027.78;7398384;19;20161;-44
2021/12/20 02:59:26;;;;;;;12.65;3.17;;;;;;;-0.12;100.00;102033.19;7394371;19;20564;-42
2021/12/20 03:02:04;;;;;;;14.63;2.22;;;;;;;-0.15;100.00;102034.66;7399749;19;20115;-44
2021/12/20 03:04:34;;;;;;;11.60;2.80;;;;;;;-0.21;100.00;102023.88;7394761;19;20175;-44
2021/12/20 03:07:10;;;;;;;12.68;3.00;;;;;;;-0.58;100.00;102025.03;7398854;19;20224;-45
2021/12/20 03:09:48;;;;;;;5.78;2.67;;;;;;;-0.73;100.00;102020.13;7393817;19;20250;-45
2021/12/20 03:12:17;;;;;;;7.97;2.47;;;;;;;-0.30;100.00;102027.97;7400235;19;20192;-46
2021/12/20 03:14:51;;;;;;;4.63;1.90;;;;;;;0.05;100.00;102028.22;7393645;19;20245;-47
2021/12/20 03:17:21;;;;;;;11.10;2.25;;;;;;;-0.35;100.00;102029.13;7398709;19;20556;-42
2021/12/20 03:19:50;;;;;;;13.35;2.47;;;;;;;-0.26;100.00;102027.53;7393305;19;20457;-43
2021/12/20 03:22:22;;;;;;;7.05;2.28;;;;;;;-0.38;100.00;102029.69;7399861;19;20194;-46
2021/12/20 03:24:53;;;;;;;5.47;1.50;;;;;;;-0.17;100.00;102035.22;7393521;19;20197;-44
2021/12/20 03:27:23;;;;;;;14.15;4.50;;;;;;;0.08;100.00;102036.19;7398371;19;20214;-47
2021/12/20 03:29:52;;;;;;;7.30;2.50;;;;;;;-0.10;100.00;102041.88;7393326;19;20257;-44
2021/12/20 03:32:22;;;;;;;11.05;3.00;;;;;;;-0.42;100.00;102038.63;7399547;19;20127;-43
2021/12/20 03:34:51;;;;;;;7.38;1.90;;;;;;;-0.71;100.00;102038.91;7393357;19;20182;-45
2021/12/20 03:37:23;;;;;;;11.80;2.55;;;;;;;-0.64;100.00;102032.88;7398149;19;20601;-48
2021/12/20 03:39:54;;;;;;;11.05;3.10;;;;;;;-0.30;100.00;102033.06;7392147;19;20189;-42
2021/12/20 03:42:24;;;;;;;9.45;2.05;;;;;;;0.06;100.00;102035.09;7399362;19;20123;-46
2021/12/20 03:44:53;;;;;;;9.02;1.90;;;;;;;0.27;100.00;102043.19;7392869;19;20189;-46
2021/12/20 03:47:25;;;;;;;10.05;2.22;;;;;;;0.25;100.00;102037.03;7397831;19;20159;-43
2021/12/20 03:49:54;;;;;;;7.78;2.75;;;;;;;0.12;100.00;102040.81;7391476;19;20453;-43
2021/12/20 03:52:26;;;;;;;8.85;1.80;;;;;;;0.29;100.00;102043.34;7399030;19;20129;-48
2021/12/20 03:54:56;;;;;;;8.27;2.03;;;;;;;0.18;100.00;102044.75;7392453;19;20215;-49
2021/12/20 03:57:25;;;;;;;11.77;2.72;;;;;;;0.22;100.00;102046.88;7398162;19;20238;-44
2021/12/20 03:59:55;;;;;;;8.43;2.00;;;;;;;0.03;100.00;102037.34;7392347;19;20568;-44
2021/12/20 04:02:27;;;;;;;5.68;2.10;;;;;;;-0.14;100.00;102041.53;7398771;19;20397;-43
2021/12/20 04:04:57;;;;;;;7.13;2.28;;;;;;;-0.36;100.00;102028.22;7392169;19;20242;-43
2021/12/20 04:07:29;;;;;;;9.10;2.05;;;;;;;0.05;100.00;102033.31;7397172;19;20218;-46
2021/12/20 04:10:01;;;;;;;8.55;2.13;;;;;;;0.10;100.00;102032.16;7393259;19;20190;-43
2021/12/20 04:12:30;;;;;;;14.20;2.22;;;;;;;0.03;100.00;102044.03;7406398;19;20127;-44
2021/12/20 04:15:00;;;;;;;10.02;2.60;;;;;;;-0.14;100.00;102056.75;7399993;19;20186;-44
2021/12/20 04:17:29;;;;;;;14.77;1.98;;;;;;;-0.07;100.00;102052.31;7403822;19;20228;-44
2021/12/20 04:19:59;;;;;;;9.43;2.35;;;;;;;-0.22;100.00;102047.44;7399348;19;20241;-45
2021/12/20 04:22:31;;;;;;;9.20;2.17;;;;;;;-0.49;100.00;102053.91;7406024;19;20174;-42
2021/12/20 04:25:00;;;;;;;9.90;2.97;;;;;;;-0.48;100.00;102048.09;7399348;19;20194;-43
2021/12/20 04:27:30;;;;;;;6.50;2.03;;;;;;;-0.47;100.00;102054.97;7403693;19;20486;-45
2021/12/20 04:29:59;;;;;;;4.88;1.90;;;;;;;-0.06;100.00;102054.16;7397213;19;20194;-44
2021/12/20 04:32:29;;;;;;;7.25;2.50;;;;;;;0.36;100.00;102053.41;7405587;19;20451;-42
2021/12/20 04:35:01;;;;;;;10.63;2.20;;;;;;;0.12;100.00;102057.72;7399758;19;20192;-45
2021/12/20 04:37:33;;;;;;;6.90;2.15;;;;;;;-0.05;100.00;102066.09;7403338;19;20159;-45
2021/12/20 04:40:06;;;;;;;9.60;2.70;;;;;;;-0.13;100.00;102057.66;7398836;19;20183;-43
2021/12/20 04:42:37;;;;;;;8.45;2.92;;;;;;;0.06;100.00;102060.47;7408140;19;20131;-43
2021/12/20 04:45:10;;;;;;;7.68;2.25;;;;;;;-0.10;100.00;102057.09;7398801;19;20190;-45
2021/12/20 04:47:42;;;;;;;5.45;2.42;;;;;;;-0.21;100.00;102061.03;7403006;19;20163;-45
2021/12/20 04:50:12;;;;;;;12.95;3.22;;;;;;;-0.52;100.00;102063.72;7396706;19;20186;-46
2021/12/20 04:52:44;;;;;;;13.82;2.60;;;;;;;-0.83;100.00;102060.41;7404962;19;20516;-46
2021/12/20 04:55:15;;;;;;;11.73;3.15;;;;;;;-0.69;100.00;102062.81;7398309;19;20194;-43
2021/12/20 04:57:45;;;;;;;15.63;2.15;;;;;;;-0.94;100.00;102063.44;7403144;19;20225;-45
2021/12/20 05:00:18;;;;;;;4.93;2.22;;;;;;;-1.00;100.00;102067.09;7398311;19;20190;-43
2021/12/20 05:02:48;;;;;;;6.88;1.95;;;;;;;-0.69;100.00;102057.75;7404636;19;20171;-46
2021/12/20 05:05:18;;;;;;;5.60;2.00;;;;;;;-0.47;100.00;102059.16;7397898;19;20182;-44
2021/12/20 05:07:53;;;;;;;8.57;1.90;;;;;;;-0.72;100.00;102054.88;7402531;19;20157;-45
2021/12/20 05:10:31;;;;;;;15.00;2.40;;;;;;;-0.97;100.00;102053.84;7396474;19;20472;-43
2021/12/20 05:13:02;;;;;;;4.78;2.00;;;;;;;-1.30;100.00;102042.72;7404360;19;20183;-42
2021/12/20 05:15:32;;;;;;;32.97;5.05;;;;;;;-1.00;100.00;102046.81;7397019;19;20190;-47
2021/12/20 05:18:05;;;;;;;6.07;1.50;;;;;;;-1.15;100.00;102050.19;7401691;19;20439;-46
2021/12/20 05:20:35;;;;;;;6.97;3.10;;;;;;;-1.03;100.00;102058.25;7396917;19;20183;-45
2021/12/20 05:23:11;;;;;;;9.07;2.15;;;;;;;-0.56;100.00;102054.88;7403910;19;20600;-43
2021/12/20 05:25:41;;;;;;;15.45;4.22;;;;;;;-0.43;100.00;102062.19;7396530;19;20874;-47
2021/12/20 05:28:10;;;;;;;15.55;3.15;;;;;;;-0.66;100.00;102061.34;7401455;19;20273;-43
2021/12/20 05:30:40;;;;;;;11.30;5.43;;;;;;;-0.82;100.00;102060.56;7396589;19;20186;-46
2021/12/20 05:33:13;;;;;;;10.60;2.92;;;;;;;-0.83;100.00;102058.78;7403500;19;20205;-43
2021/12/20 05:35:43;;;;;;;15.00;5.18;;;;;;;-1.15;100.00;102060.31;7396132;19;20250;-43
2021/12/20 05:38:15;;;;;;;12.50;3.17;;;;;;;-1.16;100.00;102061.97;7401272;19;20159;-45
2021/12/20 05:40:45;;;;;;;9.27;4.20;;;;;;;-1.22;100.00;102067.25;7396746;19;20258;-43
2021/12/20 05:43:14;;;;;;;12.10;3.83;;;;;;;-1.25;100.00;102063.47;7403078;19;20175;-44
2021/12/20 05:45:44;;;;;;;7.35;3.65;;;;;;;-1.02;100.00;102062.56;7396466;19;20193;-42
2021/12/20 05:48:13;;;;;;;9.95;2.20;;;;;;;-1.23;100.00;102059.50;7400868;19;20473;-43
2021/12/20 05:50:47;;;;;;;8.65;1.60;;;;;;;-1.42;100.00;102067.59;7395678;19;20182;-44
2021/12/20 05:53:19;;;;;;;5.13;1.83;;;;;;;-1.45;100.00;102073.94;7402800;19;20146;-42
2021/12/20 05:55:48;;;;;;;12.73;2.75;;;;;;;-1.60;100.00;102080.72;7395373;19;20190;-47
2021/12/20 05:58:18;;;;;;;6.40;2.35;;;;;;;-1.66;100.00;102075.84;7400662;19;20499;-44
2021/12/20 06:00:47;;;;;;;6.97;1.95;;;;;;;-1.63;100.00;102076.22;7396139;19;20186;-49
2021/12/20 06:03:19;;;;;;;7.80;2.60;;;;;;;-1.66;100.00;102081.84;7402498;19;20183;-45
2021/12/20 06:05:52;;;;;;;7.30;2.50;;;;;;;-1.77;100.00;102080.63;7395478;19;20206;-51
2021/12/20 06:08:24;;;;;;;5.03;1.80;;;;;;;-1.74;100.00;102079.16;7399888;19;20251;-45
2021/12/20 06:10:54;;;;;;;3.97;1.90;;;;;;;-1.74;100.00;102082.63;7395153;19;20465;-44
2021/12/20 06:13:25;;;;;;;8.85;2.65;;;;;;;-1.77;100.00;102080.63;7402195;19;20462;-45
2021/12/20 06:15:54;;;;;;;7.88;2.00;;;;;;;-1.74;100.00;102082.63;7394469;19;20201;-45
2021/12/20 06:18:24;;;;;;;9.63;2.08;;;;;;;-1.79;100.00;102077.00;7399954;19;20327;-43
2021/12/20 06:20:53;;;;;;;9.15;2.25;;;;;;;-1.79;100.00;102087.13;7394714;19;20182;-42
2021/12/20 06:23:31;;;;;;;7.90;2.47;;;;;;;-1.82;100.00;102086.81;7401613;19;20119;-47
2021/12/20 06:26:03;;;;;;;11.20;2.35;;;;;;;-1.75;100.00;102095.09;7394355;19;20186;-45
2021/12/20 06:28:32;;;;;;;4.93;2.00;;;;;;;-1.82;100.00;102089.34;7401859;19;20993;-42
2021/12/20 06:31:02;;;;;;;9.55;2.80;;;;;;;-1.80;100.00;102090.41;7395258;19;20188;-49
2021/12/20 06:33:31;;;;;;;13.48;2.70;;;;;;;-1.94;100.00;102093.00;7403649;19;20127;-44
2021/12/20 06:36:01;;;;;;;8.52;2.40;;;;;;;-1.96;100.00;102079.25;7393885;19;20192;-43
2021/12/20 06:38:34;;;;;;;9.55;2.90;;;;;;;-1.97;100.00;102077.47;7399277;19;20557;-43
2021/12/20 06:41:04;;;;;;;10.57;2.58;;;;;;;-1.99;100.00;102081.44;7395064;19;20186;-42
2021/12/20 06:43:33;;;;;;;8.77;2.40;;;;;;;-1.91;100.00;102083.22;7400884;19;20127;-45
2021/12/20 06:46:03;;;;;;;3.83;1.92;;;;;;;-1.88;100.00;102083.56;7393991;19;20186;-49
2021/12/20 06:48:34;;;;;;;13.98;2.70;;;;;;;-1.78;100.00;102086.41;7399088;19;20169;-44
2021/12/20 06:51:04;;;;;;;11.68;2.72;;;;;;;-1.83;100.00;102087.53;7394318;19;20511;-44
2021/12/20 06:53:36;;;;;;;13.13;2.83;;;;;;;-1.79;100.00;102092.19;7400620;19;20133;-42
2021/12/20 06:56:06;;;;;;;8.82;2.92;;;;;;;-1.74;100.00;102087.69;7393848;19;20187;-45
2021/12/20 06:58:35;;;;;;;4.00;1.98;;;;;;;-1.75;100.00;102084.97;7398882;19;20222;-43
2021/12/20 07:01:05;;;;;;;6.93;2.55;;;;;;;-1.81;100.00;102086.06;7394629;19;20250;-47
2021/12/20 07:03:35;;;;;;;6.93;3.08;;;;;;;-1.79;100.00;102084.59;7400228;19;20126;-43
2021/12/20 07:06:05;;;;;;;9.50;2.35;;;;;;;-1.85;100.00;102088.97;7392806;19;20186;-45
2021/12/20 07:08:37;;;;;;;8.68;3.28;;;;;;;-1.85;100.00;102096.56;7397840;19;20253;-42
2021/12/20 07:11:08;;;;;;;11.82;4.53;;;;;;;-1.72;100.00;102095.41;7392533;19;20193;-43
2021/12/20 07:13:41;;;;;;;12.57;2.85;;;;;;;-1.68;100.00;102097.56;7400166;19;20194;-43
2021/12/20 07:16:12;;;;;;;6.63;2.35;;;;;;;-1.82;100.00;102098.53;7393295;19;20188;-42
2021/12/20 07:18:41;;;;;;;6.68;2.38;;;;;;;-1.69;100.00;102100.84;7397719;19;20215;-42
2021/12/20 07:21:11;;;;;;;12.52;3.95;;;;;;;-1.60;100.00;102112.00;7393258;19;20627;-43
2021/12/20 07:23:43;;;;;;;11.35;2.22;;;;;;;-1.50;100.00;102113.91;7399777;19;20199;-47
2021/12/20 07:26:14;;;;;;;7.90;3.53;;;;;;;-1.51;100.00;102119.72;7392338;19;20257;-44
2021/12/20 07:28:45;;;;;;;11.52;4.45;;;;;;;-1.30;100.00;102116.16;7397750;19;20158;-49
2021/12/20 07:31:15;;;;;;;11.43;5.43;;;;;;;-0.98;100.00;102121.34;7391664;19;20250;-47
2021/12/20 07:33:45;;;;;;;8.10;2.88;;;;;;;-1.01;100.00;102123.56;7399285;19;20178;-45
2021/12/20 07:36:18;;;;;;;9.80;3.40;;;;;;;-1.10;100.00;102131.03;7391866;19;20266;-45
2021/12/20 07:38:51;;;;;;;19.70;6.68;;;;;;;-1.02;100.00;102136.94;7399205;19;20187;-42
2021/12/20 07:41:22;;;;;;;9.90;3.35;;;;;;;-0.91;100.00;102140.69;7393016;19;20186;-42
2021/12/20 07:43:52;;;;;;;20.63;5.45;;;;;;;-0.98;100.00;102138.19;7398856;19;20171;-45
2021/12/20 07:46:21;;;;;;;8.02;3.35;;;;;;;-1.00;100.00;102142.19;7391985;19;20197;-48
2021/12/20 07:48:51;;;;;;;6.85;2.65;;;;;;;-1.37;100.00;102142.41;7399444;19;20122;-47
2021/12/20 07:51:23;;;;;;;13.15;4.35;;;;;;;-1.55;100.00;102136.19;7391481;19;20190;-44
2021/12/20 07:53:55;;;;;;;9.73;3.47;;;;;;;-1.51;100.00;102138.34;7398856;19;20175;-44
2021/12/20 07:56:24;;;;;;;12.88;4.78;;;;;;;-1.37;100.00;102137.34;7391574;19;20190;-46
2021/12/20 07:58:53;;;;;;;6.10;2.50;;;;;;;-1.43;100.00;102131.59;7398409;19;20134;-45
2021/12/20 08:01:23;;;;;;;8.52;3.80;;;;;;;-1.24;100.00;102138.72;7392626;19;20256;-50
2021/12/20 08:03:52;;;;;;;10.10;2.78;;;;;;;-1.42;100.00;102145.19;7398196;19;20123;-43
2021/12/20 08:06:22;;;;;;;7.93;2.42;;;;;;;-1.58;100.00;102153.59;7391734;19;20516;-44
2021/12/20 08:08:54;;;;;;;12.82;3.13;;;;;;;-1.44;100.00;102146.63;7398814;19;20120;-43
2021/12/20 08:11:24;;;;;;;19.60;3.15;;;;;;;-1.61;100.00;102149.78;7391297;19;20459;-44
2021/12/20 08:13:53;;;;;;;6.97;2.80;;;;;;;-1.70;100.00;102149.66;7398323;19;20382;-46
2021/12/20 08:16:23;;;;;;;7.55;3.30;;;;;;;-1.74;100.00;102140.81;7391537;19;20205;-43
2021/12/20 08:18:52;;;;;;;8.57;2.50;;;;;;;-1.78;100.00;102142.06;7398322;19;20183;-47
2021/12/20 08:21:22;;;;;;;8.45;2.92;;;;;;;-1.80;100.00;102143.53;7391902;19;20644;-43
2021/12/20 08:23:51;;;;;;;14.75;2.63;;;;;;;-1.69;100.00;102142.22;7398188;19;20187;-43
2021/12/20 08:26:23;;;;;;;9.50;2.60;;;;;;;-1.72;100.00;102146.94;7390803;19;20195;-42
2021/12/20 08:28:58;;;;;;;8.43;2.97;;;;;;;-1.64;100.00;102140.22;7398165;19;20401;-43
2021/12/20 08:31:28;;;;;;;6.07;2.20;;;;;;;-1.56;100.00;102139.47;7392263;19;20193;-43
2021/12/20 08:33:57;;;;;;;7.95;3.00;;;;;;;-1.62;100.00;102141.31;7401733;19;20126;-42
2021/12/20 08:36:27;;;;;;;12.25;3.45;;;;;;;-1.76;100.00;102144.78;7390360;19;20196;-44
2021/12/20 08:38:57;;;;;;;9.00;3.10;;;;;;;-1.81;100.00;102143.34;7397901;19;20477;-44
2021/12/20 08:41:29;;;;;;;11.32;2.83;;;;;;;-1.64;100.00;102142.78;7391229;19;20206;-43
2021/12/20 08:43:58;;;;;;;13.23;3.83;;;;;;;-1.56;100.00;102144.53;7397615;19;20241;-43
2021/12/20 08:46:28;;;;;;;17.17;3.80;;;;;;;-1.53;100.00;102146.50;7390700;19;20254;-43
2021/12/20 08:48:58;;;;;;;10.07;2.72;;;;;;;-1.45;100.00;102160.03;7397420;19;20377;-43
2021/12/20 08:51:28;;;;;;;13.90;4.25;;;;;;;-1.50;100.00;102159.50;7390233;19;20238;-44
2021/12/20 08:53:57;;;;;;;10.75;3.03;;;;;;;-1.54;100.00;102160.78;7397254;19;20171;-47
2021/12/20 08:56:30;;;;;;;9.98;3.08;;;;;;;-1.49;100.00;102163.81;7394490;19;20255;-43
2021/12/20 08:59:00;;;;;;;9.30;2.78;;;;;;;-1.31;100.00;102167.53;7404661;19;20123;-45
2021/12/20 09:01:29;;;;;;;8.68;2.92;;;;;;;-1.26;100.00;102173.13;7397415;19;20238;-42
2021/12/20 09:03:59;;;;;;;6.35;2.80;;;;;;;-1.24;100.00;102175.09;7404193;19;20446;-45
2021/12/20 09:06:31;;;;;;;11.77;3.17;;;;;;;-1.28;100.00;102172.94;7396921;19;20190;-45
2021/12/20 09:09:00;;;;;;;11.43;2.58;;;;;;;-1.25;100.00;102180.91;7403865;19;20167;-43
2021/12/20 09:11:33;;;;;;;8.77;3.47;;;;;;;-1.23;100.00;102181.97;7397965;19;20186;-44
2021/12/20 09:14:13;;;;;;;9.02;2.72;;;;;;;-1.13;100.00;102181.34;7403819;19;20423;-44
2021/12/20 09:16:43;;;;;;;8.07;3.00;;;;;;;-1.03;100.00;102184.94;7397170;19;20242;-43
2021/12/20 09:19:13;;;;;;;12.27;3.17;;;;;;;-0.81;100.00;102183.16;7404080;19;20139;-43
2021/12/20 09:21:43;;;;;;;6.35;2.20;;;;;;;-0.79;100.00;102189.28;7396039;19;20203;-45
2021/12/20 09:24:13;;;;;;;11.68;2.60;;;;;;;-0.84;100.00;102181.19;7404214;19;20632;-43
2021/12/20 09:26:45;;;;;;;6.20;2.28;;;;;;;-0.78;100.00;102190.19;7395989;19;20193;-45
2021/12/20 09:29:15;;;;;;;7.70;2.75;;;;;;;-0.80;100.00;102195.09;7403908;19;20171;-44
2021/12/20 09:31:44;;;;;;;5.38;2.75;;;;;;;-0.66;100.00;102198.25;7402543;19;20230;-43
2021/12/20 09:34:14;;;;;;;8.32;2.40;;;;;;;-0.64;100.00;102196.75;7403052;19;20139;-43
2021/12/20 09:36:43;;;;;;;7.55;2.85;;;;;;;-0.76;100.00;102197.25;7395576;19;20197;-43
2021/12/20 09:39:15;;;;;;;5.10;2.30;;;;;;;-0.62;100.00;102193.66;7404048;19;20141;-43
2021/12/20 09:42:03;;;;;;;9.70;2.80;;;;;;;-0.67;100.00;102192.25;7401414;19;20171;-45
2021/12/20 09:44:33;;;;;;;9.20;2.28;;;;;;;-0.59;100.00;102190.56;7397283;19;20119;-44
2021/12/20 09:47:04;;;;;;;11.25;2.50;;;;;;;-0.49;100.00;102193.41;7401248;19;20206;-44
2021/12/20 09:49:34;;;;;;;9.25;2.90;;;;;;;-0.49;100.00;102192.47;7397188;19;20185;-43
2021/12/20 09:52:03;;;;;;;10.85;2.40;;;;;;;-0.44;100.00;102192.25;7402330;19;20124;-43
2021/12/20 09:54:33;;;;;;;5.90;2.33;;;;;;;-0.39;100.00;102195.28;7397162;19;20134;-46
2021/12/20 09:57:08;;;;;;;8.93;2.05;;;;;;;-0.32;100.00;102197.75;7400869;19;20158;-44
2021/12/20 09:59:39;;;;;;;8.57;2.42;;;;;;;-0.32;100.00;102196.84;7396842;19;20174;-43
2021/12/20 10:02:10;;;;;;;6.03;2.63;;;;;;;0.01;100.00;102193.66;7401401;19;20437;-46
2021/12/20 10:04:40;;;;;;;7.90;2.47;;;;;;;0.32;100.00;102199.47;7396357;19;20238;-45
2021/12/20 10:07:10;;;;;;;11.93;2.50;;;;;;;0.40;100.00;102198.63;7398298;19;20162;-44
2021/12/20 10:09:47;;;;;;;8.15;2.35;;;;;;;0.11;100.00;102204.03;7395485;19;20204;-43
2021/12/20 10:12:26;;;;;;;9.38;2.30;;;;;;;0.15;100.00;102205.25;7401993;19;20123;-44
2021/12/20 10:15:05;;;;;;;8.32;2.50;;;;;;;0.59;100.00;102213.28;7395913;19;20182;-42
2021/12/20 10:17:37;;;;;;;8.18;2.63;;;;;;;0.50;100.00;102212.28;7400332;19;20158;-44
2021/12/20 10:20:18;;;;;;;11.68;4.30;;;;;;;0.53;100.00;102222.78;7395371;19;20194;-43
2021/12/20 10:22:48;;;;;;;14.85;6.65;;;;;;;0.50;100.00;102222.44;7400778;19;20131;-44
2021/12/20 10:25:29;;;;;;;19.40;7.35;;;;;;;0.58;100.00;102229.25;7396441;19;20261;-43
2021/12/20 10:28:10;;;;;;;5.78;1.95;;;;;;;0.67;100.00;102232.75;7400418;19;20169;-45
2021/12/20 10:30:43;;;;;;;4.43;1.90;;;;;;;0.65;100.00;102225.72;7395392;19;20245;-45
2021/12/20 10:33:14;;;;;;;6.85;1.88;;;;;;;0.61;100.00;102236.31;7401419;19;20123;-43
2021/12/20 10:35:47;;;;;;;6.55;2.33;;;;;;;0.79;100.00;102232.25;7396721;19;20183;-45
2021/12/20 10:38:26;;;;;;;17.85;7.50;;;;;;;0.82;100.00;102234.22;7399397;19;20155;-45
2021/12/20 10:40:58;;;;;;;5.05;2.00;;;;;;;0.87;100.00;102236.50;7394892;19;20800;-44
2021/12/20 10:43:35;;;;;;;10.18;4.10;;;;;;;1.10;100.00;102245.63;7399745;19;20421;-44
2021/12/20 10:46:12;;;;;;;5.68;2.50;;;;;;;1.14;100.00;102242.66;7394128;19;20250;-45
2021/12/20 10:48:46;;;;;;;16.50;5.40;;;;;;;1.13;100.00;102240.84;7398987;19;20431;-46
2021/12/20 10:51:21;;;;;;;10.00;3.17;;;;;;;1.23;100.00;102239.28;7394474;19;20250;-45
2021/12/20 10:53:58;;;;;;;8.57;2.20;;;;;;;1.18;100.00;102238.81;7400807;19;20427;-45
2021/12/20 10:56:29;;;;;;;10.87;5.33;;;;;;;1.43;100.00;102239.66;7393007;19;20203;-43
2021/12/20 10:59:02;;;;;;;6.78;2.38;;;;;;;1.35;100.00;102249.03;7400690;19;20383;-46
2021/12/20 11:04:20;;;;;;;14.05;5.13;;;;;;;1.40;100.00;102241.91;7399644;19;20152;-51
2021/12/20 11:09:39;;;;;;;5.43;2.08;;;;;;;1.42;100.00;102245.50;7393638;19;20119;-49
2021/12/20 11:12:11;;;;;;;6.53;2.40;;;;;;;1.40;100.00;102247.00;7399655;19;20120;-46
2021/12/20 11:14:46;;;;;;;8.13;3.30;;;;;;;1.42;100.00;102248.03;7394179;19;20408;-48
2021/12/20 11:17:18;;;;;;;9.90;2.92;;;;;;;1.36;100.00;102244.88;7398634;19;20415;-48
2021/12/20 11:19:48;;;;;;;6.45;2.35;;;;;;;1.45;100.00;102242.38;7393495;19;20254;-43
2021/12/20 11:22:21;;;;;;;7.80;2.40;;;;;;;1.41;100.00;102237.72;7399242;19;20175;-44
2021/12/20 11:24:52;;;;;;;17.23;2.90;;;;;;;1.84;100.00;102238.66;7393732;19;20411;-44
2021/12/20 11:27:24;;;;;;;7.70;2.58;;;;;;;1.79;100.00;102244.91;7398317;19;20874;-44
2021/12/20 11:29:58;;;;;;;13.43;3.00;;;;;;;1.83;100.00;102239.38;7393354;19;20599;-44
2021/12/20 11:32:28;;;;;;;4.90;2.33;;;;;;;1.72;100.00;102241.75;7399424;19;20391;-44
2021/12/20 11:34:58;;;;;;;8.00;2.40;;;;;;;1.79;100.00;102242.38;7393417;19;20408;-44
2021/12/20 11:37:29;;;;;;;8.52;2.25;;;;;;;1.77;100.00;102243.84;7397960;19;20427;-47
2021/12/20 11:40:02;;;;;;;9.33;3.03;;;;;;;1.95;100.00;102243.16;7393238;19;20182;-47
2021/12/20 11:42:32;;;;;;;7.40;2.80;;;;;;;1.87;100.00;102231.31;7398780;19;20655;-43
2021/12/20 11:45:07;;;;;;;8.53;2.93;;;;;;;1.80;100.00;102239.06;7392577;19;20411;-42
2021/12/20 11:47:39;;;;;;;8.13;2.27;;;;;;;1.91;100.00;102230.88;7397601;19;20419;-46
2021/12/20 11:50:11;;;;;;;4.73;1.63;;;;;;;2.36;100.00;102229.31;7392648;19;20412;-48